sensor_id;sensor_type;location;lat;lon;timestamp;P1;durP1;ratioP1;P2;durP2;ratioP2
26375;SDS011;30544;42.196;24.336;2023-05-02T00:02:05;13.98;;;8.63;;
26375;SDS011;30544;42.196;24.336;2023-05-02T00:04:34;12.30;;;9.23;;
26375;SDS011;30544;42.196;24.336;2023-05-02T00:07:00;14.75;;;9.70;;
26375;SDS011;30544;42.196;24.336;2023-05-02T00:09:27;12.80;;;9.50;;
26375;SDS011;30544;42.196;24.336;2023-05-02T00:11:54;12.05;;;9.02;;
26375;SDS011;30544;42.196;24.336;2023-05-02T00:14:20;14.35;;;9.75;;
26375;SDS011;30544;42.196;24.336;2023-05-02T00:16:47;13.05;;;9.90;;
26375;SDS011;30544;42.196;24.336;2023-05-02T00:19:13;14.10;;;9.70;;
26375;SDS011;30544;42.196;24.336;2023-05-02T00:21:41;20.60;;;10.20;;
26375;SDS011;30544;42.196;24.336;2023-05-02T00:24:08;12.50;;;9.90;;
26375;SDS011;30544;42.196;24.336;2023-05-02T00:26:34;14.45;;;10.00;;
26375;SDS011;30544;42.196;24.336;2023-05-02T00:29:00;12.63;;;9.85;;
26375;SDS011;30544;42.196;24.336;2023-05-02T00:31:27;15.95;;;10.70;;
26375;SDS011;30544;42.196;24.336;2023-05-02T00:33:54;14.88;;;10.85;;
26375;SDS011;30544;42.196;24.336;2023-05-02T00:36:21;12.57;;;11.27;;
26375;SDS011;30544;42.196;24.336;2023-05-02T00:38:49;14.60;;;11.35;;
26375;SDS011;30544;42.196;24.336;2023-05-02T00:41:15;14.77;;;12.52;;
26375;SDS011;30544;42.196;24.336;2023-05-02T00:43:42;14.43;;;11.13;;
26375;SDS011;30544;42.196;24.336;2023-05-02T00:46:08;13.93;;;10.55;;
26375;SDS011;30544;42.196;24.336;2023-05-02T00:48:36;16.33;;;11.48;;
26375;SDS011;30544;42.196;24.336;2023-05-02T00:51:02;14.13;;;11.05;;
26375;SDS011;30544;42.196;24.336;2023-05-02T00:53:30;15.73;;;11.65;;
26375;SDS011;30544;42.196;24.336;2023-05-02T00:55:58;15.23;;;12.25;;
26375;SDS011;30544;42.196;24.336;2023-05-02T00:58:25;14.43;;;11.60;;
26375;SDS011;30544;42.196;24.336;2023-05-02T01:00:57;15.80;;;11.10;;
26375;SDS011;30544;42.196;24.336;2023-05-02T01:03:26;14.52;;;10.55;;
26375;SDS011;30544;42.196;24.336;2023-05-02T01:05:58;17.27;;;10.48;;
26375;SDS011;30544;42.196;24.336;2023-05-02T01:08:28;12.77;;;9.93;;
26375;SDS011;30544;42.196;24.336;2023-05-02T01:11:03;17.75;;;9.77;;
26375;SDS011;30544;42.196;24.336;2023-05-02T01:13:31;13.43;;;10.55;;
26375;SDS011;30544;42.196;24.336;2023-05-02T01:15:58;11.95;;;9.43;;
26375;SDS011;30544;42.196;24.336;2023-05-02T01:18:27;13.63;;;10.68;;
26375;SDS011;30544;42.196;24.336;2023-05-02T01:20:56;20.38;;;10.38;;
26375;SDS011;30544;42.196;24.336;2023-05-02T01:23:24;16.13;;;10.07;;
26375;SDS011;30544;42.196;24.336;2023-05-02T01:25:59;15.15;;;10.63;;
26375;SDS011;30544;42.196;24.336;2023-05-02T01:28:30;12.95;;;10.38;;
26375;SDS011;30544;42.196;24.336;2023-05-02T01:31:01;17.80;;;10.60;;
26375;SDS011;30544;42.196;24.336;2023-05-02T01:33:28;17.35;;;10.85;;
26375;SDS011;30544;42.196;24.336;2023-05-02T01:35:56;14.88;;;11.73;;
26375;SDS011;30544;42.196;24.336;2023-05-02T01:38:22;13.30;;;10.50;;
26375;SDS011;30544;42.196;24.336;2023-05-02T01:40:50;15.02;;;10.32;;
26375;SDS011;30544;42.196;24.336;2023-05-02T01:43:17;16.95;;;10.63;;
26375;SDS011;30544;42.196;24.336;2023-05-02T01:45:46;19.75;;;11.75;;
26375;SDS011;30544;42.196;24.336;2023-05-02T01:48:15;14.75;;;10.85;;
26375;SDS011;30544;42.196;24.336;2023-05-02T01:50:42;12.75;;;10.30;;
26375;SDS011;30544;42.196;24.336;2023-05-02T01:53:10;19.20;;;11.55;;
26375;SDS011;30544;42.196;24.336;2023-05-02T01:55:38;14.82;;;10.70;;
26375;SDS011;30544;42.196;24.336;2023-05-02T01:58:06;13.63;;;10.93;;
26375;SDS011;30544;42.196;24.336;2023-05-02T02:00:32;21.25;;;10.32;;
26375;SDS011;30544;42.196;24.336;2023-05-02T02:02:59;12.90;;;10.35;;
26375;SDS011;30544;42.196;24.336;2023-05-02T02:05:27;17.20;;;12.00;;
26375;SDS011;30544;42.196;24.336;2023-05-02T02:07:54;14.45;;;11.50;;
26375;SDS011;30544;42.196;24.336;2023-05-02T02:10:21;14.70;;;10.98;;
26375;SDS011;30544;42.196;24.336;2023-05-02T02:12:51;16.95;;;11.70;;
26375;SDS011;30544;42.196;24.336;2023-05-02T02:15:18;14.60;;;11.48;;
26375;SDS011;30544;42.196;24.336;2023-05-02T02:17:46;19.92;;;12.57;;
26375;SDS011;30544;42.196;24.336;2023-05-02T02:20:14;17.75;;;12.32;;
26375;SDS011;30544;42.196;24.336;2023-05-02T02:22:42;19.05;;;12.98;;
26375;SDS011;30544;42.196;24.336;2023-05-02T02:25:09;23.55;;;13.98;;
26375;SDS011;30544;42.196;24.336;2023-05-02T02:27:36;19.42;;;12.98;;
26375;SDS011;30544;42.196;24.336;2023-05-02T02:30:03;17.92;;;13.23;;
26375;SDS011;30544;42.196;24.336;2023-05-02T02:32:30;18.50;;;13.32;;
26375;SDS011;30544;42.196;24.336;2023-05-02T02:34:56;20.73;;;13.02;;
26375;SDS011;30544;42.196;24.336;2023-05-02T02:37:25;18.23;;;13.23;;
26375;SDS011;30544;42.196;24.336;2023-05-02T02:39:57;15.48;;;12.10;;
26375;SDS011;30544;42.196;24.336;2023-05-02T02:42:27;17.17;;;12.38;;
26375;SDS011;30544;42.196;24.336;2023-05-02T02:45:00;17.93;;;12.07;;
26375;SDS011;30544;42.196;24.336;2023-05-02T02:47:33;17.67;;;12.73;;
26375;SDS011;30544;42.196;24.336;2023-05-02T02:50:05;17.73;;;12.23;;
26375;SDS011;30544;42.196;24.336;2023-05-02T02:52:37;19.10;;;15.00;;
26375;SDS011;30544;42.196;24.336;2023-05-02T02:55:08;19.50;;;14.48;;
26375;SDS011;30544;42.196;24.336;2023-05-02T02:57:38;20.92;;;14.63;;
26375;SDS011;30544;42.196;24.336;2023-05-02T03:00:07;20.20;;;15.07;;
26375;SDS011;30544;42.196;24.336;2023-05-02T03:02:36;22.65;;;15.15;;
26375;SDS011;30544;42.196;24.336;2023-05-02T03:05:05;18.45;;;13.07;;
26375;SDS011;30544;42.196;24.336;2023-05-02T03:07:32;17.08;;;14.07;;
26375;SDS011;30544;42.196;24.336;2023-05-02T03:10:01;17.98;;;13.27;;
26375;SDS011;30544;42.196;24.336;2023-05-02T03:12:29;19.13;;;14.35;;
26375;SDS011;30544;42.196;24.336;2023-05-02T03:14:56;20.20;;;14.18;;
26375;SDS011;30544;42.196;24.336;2023-05-02T03:17:27;18.10;;;14.07;;
26375;SDS011;30544;42.196;24.336;2023-05-02T03:19:54;21.45;;;13.88;;
26375;SDS011;30544;42.196;24.336;2023-05-02T03:22:21;19.88;;;13.52;;
26375;SDS011;30544;42.196;24.336;2023-05-02T03:24:47;19.08;;;13.52;;
26375;SDS011;30544;42.196;24.336;2023-05-02T03:27:14;20.33;;;14.45;;
26375;SDS011;30544;42.196;24.336;2023-05-02T03:29:42;17.98;;;13.00;;
26375;SDS011;30544;42.196;24.336;2023-05-02T03:32:08;18.95;;;14.73;;
26375;SDS011;30544;42.196;24.336;2023-05-02T03:34:35;21.02;;;13.85;;
26375;SDS011;30544;42.196;24.336;2023-05-02T03:37:02;18.73;;;13.80;;
26375;SDS011;30544;42.196;24.336;2023-05-02T03:39:28;17.38;;;12.98;;
26375;SDS011;30544;42.196;24.336;2023-05-02T03:41:54;20.52;;;13.07;;
26375;SDS011;30544;42.196;24.336;2023-05-02T03:44:21;18.75;;;13.07;;
26375;SDS011;30544;42.196;24.336;2023-05-02T03:46:49;23.73;;;15.05;;
26375;SDS011;30544;42.196;24.336;2023-05-02T03:49:15;21.17;;;15.23;;
26375;SDS011;30544;42.196;24.336;2023-05-02T03:51:43;18.73;;;14.00;;
26375;SDS011;30544;42.196;24.336;2023-05-02T03:54:10;17.63;;;13.18;;
26375;SDS011;30544;42.196;24.336;2023-05-02T03:56:36;20.83;;;14.38;;
26375;SDS011;30544;42.196;24.336;2023-05-02T03:59:03;21.05;;;14.15;;
26375;SDS011;30544;42.196;24.336;2023-05-02T04:01:29;20.10;;;13.57;;
26375;SDS011;30544;42.196;24.336;2023-05-02T04:03:57;20.27;;;14.02;;
26375;SDS011;30544;42.196;24.336;2023-05-02T04:06:24;23.77;;;13.52;;
26375;SDS011;30544;42.196;24.336;2023-05-02T04:08:51;20.23;;;13.80;;
26375;SDS011;30544;42.196;24.336;2023-05-02T04:11:17;18.58;;;14.63;;
26375;SDS011;30544;42.196;24.336;2023-05-02T04:13:44;23.80;;;15.60;;
26375;SDS011;30544;42.196;24.336;2023-05-02T04:16:10;28.35;;;14.18;;
26375;SDS011;30544;42.196;24.336;2023-05-02T04:18:37;19.20;;;13.85;;
26375;SDS011;30544;42.196;24.336;2023-05-02T04:21:06;18.23;;;14.05;;
26375;SDS011;30544;42.196;24.336;2023-05-02T04:23:32;23.65;;;13.68;;
26375;SDS011;30544;42.196;24.336;2023-05-02T04:25:59;183.85;;;69.55;;
26375;SDS011;30544;42.196;24.336;2023-05-02T04:28:25;18.38;;;14.35;;
26375;SDS011;30544;42.196;24.336;2023-05-02T04:30:52;21.05;;;15.10;;
26375;SDS011;30544;42.196;24.336;2023-05-02T04:33:18;54.67;;;25.60;;
26375;SDS011;30544;42.196;24.336;2023-05-02T04:35:44;131.00;;;46.78;;
26375;SDS011;30544;42.196;24.336;2023-05-02T04:38:12;22.77;;;16.10;;
26375;SDS011;30544;42.196;24.336;2023-05-02T04:40:39;111.47;;;40.85;;
26375;SDS011;30544;42.196;24.336;2023-05-02T04:43:06;19.10;;;14.05;;
26375;SDS011;30544;42.196;24.336;2023-05-02T04:45:33;23.52;;;14.07;;
26375;SDS011;30544;42.196;24.336;2023-05-02T04:47:59;26.45;;;14.90;;
26375;SDS011;30544;42.196;24.336;2023-05-02T04:50:26;24.27;;;14.65;;
26375;SDS011;30544;42.196;24.336;2023-05-02T04:52:53;17.88;;;13.35;;
26375;SDS011;30544;42.196;24.336;2023-05-02T04:55:21;23.10;;;15.20;;
26375;SDS011;30544;42.196;24.336;2023-05-02T04:57:47;19.67;;;14.80;;
26375;SDS011;30544;42.196;24.336;2023-05-02T05:00:14;20.83;;;14.98;;
26375;SDS011;30544;42.196;24.336;2023-05-02T05:02:41;25.13;;;15.65;;
26375;SDS011;30544;42.196;24.336;2023-05-02T05:05:08;19.95;;;15.90;;
26375;SDS011;30544;42.196;24.336;2023-05-02T05:07:34;21.55;;;14.75;;
26375;SDS011;30544;42.196;24.336;2023-05-02T05:10:01;18.80;;;15.23;;
26375;SDS011;30544;42.196;24.336;2023-05-02T05:12:29;21.00;;;13.63;;
26375;SDS011;30544;42.196;24.336;2023-05-02T05:14:55;18.55;;;13.98;;
26375;SDS011;30544;42.196;24.336;2023-05-02T05:17:22;17.77;;;13.25;;
26375;SDS011;30544;42.196;24.336;2023-05-02T05:19:48;23.67;;;14.63;;
26375;SDS011;30544;42.196;24.336;2023-05-02T05:22:15;21.23;;;16.10;;
26375;SDS011;30544;42.196;24.336;2023-05-02T05:24:41;24.95;;;15.80;;
26375;SDS011;30544;42.196;24.336;2023-05-02T05:27:08;26.92;;;14.70;;
26375;SDS011;30544;42.196;24.336;2023-05-02T05:29:36;23.25;;;16.45;;
26375;SDS011;30544;42.196;24.336;2023-05-02T05:32:03;25.65;;;16.88;;
26375;SDS011;30544;42.196;24.336;2023-05-02T05:34:30;24.70;;;16.35;;
26375;SDS011;30544;42.196;24.336;2023-05-02T05:36:56;51.17;;;24.98;;
26375;SDS011;30544;42.196;24.336;2023-05-02T05:39:23;96.90;;;39.47;;
26375;SDS011;30544;42.196;24.336;2023-05-02T05:41:49;20.30;;;17.30;;
26375;SDS011;30544;42.196;24.336;2023-05-02T05:44:16;21.83;;;17.60;;
26375;SDS011;30544;42.196;24.336;2023-05-02T05:46:45;20.52;;;16.75;;
26375;SDS011;30544;42.196;24.336;2023-05-02T05:49:11;34.00;;;20.52;;
26375;SDS011;30544;42.196;24.336;2023-05-02T05:51:38;22.15;;;16.80;;
26375;SDS011;30544;42.196;24.336;2023-05-02T05:54:04;16.77;;;13.70;;
26375;SDS011;30544;42.196;24.336;2023-05-02T05:56:31;23.50;;;15.15;;
26375;SDS011;30544;42.196;24.336;2023-05-02T05:58:58;20.75;;;14.82;;
26375;SDS011;30544;42.196;24.336;2023-05-02T06:01:24;26.67;;;15.82;;
26375;SDS011;30544;42.196;24.336;2023-05-02T06:03:52;21.35;;;13.98;;
26375;SDS011;30544;42.196;24.336;2023-05-02T06:06:19;17.52;;;13.85;;
26375;SDS011;30544;42.196;24.336;2023-05-02T06:08:45;19.92;;;14.90;;
26375;SDS011;30544;42.196;24.336;2023-05-02T06:11:11;19.05;;;14.50;;
26375;SDS011;30544;42.196;24.336;2023-05-02T06:13:38;17.88;;;14.43;;
26375;SDS011;30544;42.196;24.336;2023-05-02T06:16:05;20.48;;;14.43;;
26375;SDS011;30544;42.196;24.336;2023-05-02T06:18:31;16.63;;;14.10;;
26375;SDS011;30544;42.196;24.336;2023-05-02T06:21:03;21.85;;;15.02;;
26375;SDS011;30544;42.196;24.336;2023-05-02T06:23:30;18.50;;;14.00;;
26375;SDS011;30544;42.196;24.336;2023-05-02T06:25:57;19.52;;;14.23;;
26375;SDS011;30544;42.196;24.336;2023-05-02T06:28:24;18.58;;;14.70;;
26375;SDS011;30544;42.196;24.336;2023-05-02T06:30:55;30.38;;;14.60;;
26375;SDS011;30544;42.196;24.336;2023-05-02T06:33:21;17.17;;;12.68;;
26375;SDS011;30544;42.196;24.336;2023-05-02T06:35:49;16.98;;;12.60;;
26375;SDS011;30544;42.196;24.336;2023-05-02T06:38:17;16.65;;;12.52;;
26375;SDS011;30544;42.196;24.336;2023-05-02T06:40:44;17.90;;;12.30;;
26375;SDS011;30544;42.196;24.336;2023-05-02T06:43:10;20.75;;;12.50;;
26375;SDS011;30544;42.196;24.336;2023-05-02T06:45:37;16.30;;;13.10;;
26375;SDS011;30544;42.196;24.336;2023-05-02T06:48:04;19.48;;;13.48;;
26375;SDS011;30544;42.196;24.336;2023-05-02T06:50:30;17.35;;;13.73;;
26375;SDS011;30544;42.196;24.336;2023-05-02T06:52:57;20.25;;;13.90;;
26375;SDS011;30544;42.196;24.336;2023-05-02T06:55:25;20.63;;;13.80;;
26375;SDS011;30544;42.196;24.336;2023-05-02T06:57:51;23.08;;;15.32;;
26375;SDS011;30544;42.196;24.336;2023-05-02T07:00:18;19.52;;;14.75;;
26375;SDS011;30544;42.196;24.336;2023-05-02T07:02:45;68.93;;;33.22;;
26375;SDS011;30544;42.196;24.336;2023-05-02T07:05:11;20.48;;;14.80;;
26375;SDS011;30544;42.196;24.336;2023-05-02T07:07:39;23.17;;;15.27;;
26375;SDS011;30544;42.196;24.336;2023-05-02T07:10:06;20.40;;;14.60;;
26375;SDS011;30544;42.196;24.336;2023-05-02T07:12:34;24.52;;;14.85;;
26375;SDS011;30544;42.196;24.336;2023-05-02T07:15:01;20.63;;;14.73;;
26375;SDS011;30544;42.196;24.336;2023-05-02T07:17:27;22.08;;;15.75;;
26375;SDS011;30544;42.196;24.336;2023-05-02T07:19:53;19.90;;;14.77;;
26375;SDS011;30544;42.196;24.336;2023-05-02T07:22:20;19.58;;;13.90;;
26375;SDS011;30544;42.196;24.336;2023-05-02T07:24:47;17.38;;;12.77;;
26375;SDS011;30544;42.196;24.336;2023-05-02T07:27:13;16.52;;;12.88;;
26375;SDS011;30544;42.196;24.336;2023-05-02T07:29:41;20.42;;;11.60;;
26375;SDS011;30544;42.196;24.336;2023-05-02T07:32:07;18.30;;;13.50;;
26375;SDS011;30544;42.196;24.336;2023-05-02T07:34:34;20.13;;;12.77;;
26375;SDS011;30544;42.196;24.336;2023-05-02T07:37:00;17.95;;;12.10;;
26375;SDS011;30544;42.196;24.336;2023-05-02T07:39:27;22.02;;;11.80;;
26375;SDS011;30544;42.196;24.336;2023-05-02T07:41:54;17.00;;;11.63;;
26375;SDS011;30544;42.196;24.336;2023-05-02T07:44:21;16.80;;;11.68;;
26375;SDS011;30544;42.196;24.336;2023-05-02T07:46:48;16.67;;;10.80;;
26375;SDS011;30544;42.196;24.336;2023-05-02T07:49:15;30.20;;;11.02;;
26375;SDS011;30544;42.196;24.336;2023-05-02T07:51:42;14.95;;;10.18;;
26375;SDS011;30544;42.196;24.336;2023-05-02T07:54:16;15.93;;;9.55;;
26375;SDS011;30544;42.196;24.336;2023-05-02T07:56:42;13.20;;;9.18;;
26375;SDS011;30544;42.196;24.336;2023-05-02T07:59:09;21.30;;;9.55;;
26375;SDS011;30544;42.196;24.336;2023-05-02T08:01:35;22.30;;;9.18;;
26375;SDS011;30544;42.196;24.336;2023-05-02T08:04:03;15.10;;;8.13;;
26375;SDS011;30544;42.196;24.336;2023-05-02T08:06:30;19.85;;;8.13;;
26375;SDS011;30544;42.196;24.336;2023-05-02T08:08:58;20.27;;;9.70;;
26375;SDS011;30544;42.196;24.336;2023-05-02T08:11:24;21.42;;;13.25;;
26375;SDS011;30544;42.196;24.336;2023-05-02T08:13:51;17.38;;;10.93;;
26375;SDS011;30544;42.196;24.336;2023-05-02T08:16:17;15.07;;;7.70;;
26375;SDS011;30544;42.196;24.336;2023-05-02T08:18:44;9.60;;;6.70;;
26375;SDS011;30544;42.196;24.336;2023-05-02T08:21:12;12.30;;;7.50;;
26375;SDS011;30544;42.196;24.336;2023-05-02T08:23:39;13.73;;;8.25;;
26375;SDS011;30544;42.196;24.336;2023-05-02T08:26:06;9.25;;;6.20;;
26375;SDS011;30544;42.196;24.336;2023-05-02T08:28:33;16.20;;;7.78;;
26375;SDS011;30544;42.196;24.336;2023-05-02T08:30:59;15.23;;;7.80;;
26375;SDS011;30544;42.196;24.336;2023-05-02T08:33:26;15.85;;;8.38;;
26375;SDS011;30544;42.196;24.336;2023-05-02T08:35:52;12.70;;;6.88;;
26375;SDS011;30544;42.196;24.336;2023-05-02T08:38:20;11.55;;;7.57;;
26375;SDS011;30544;42.196;24.336;2023-05-02T08:40:47;12.50;;;6.85;;
26375;SDS011;30544;42.196;24.336;2023-05-02T08:43:14;16.50;;;7.65;;
26375;SDS011;30544;42.196;24.336;2023-05-02T08:45:43;16.30;;;7.85;;
26375;SDS011;30544;42.196;24.336;2023-05-02T08:48:10;12.15;;;8.13;;
26375;SDS011;30544;42.196;24.336;2023-05-02T08:50:37;12.07;;;7.93;;
26375;SDS011;30544;42.196;24.336;2023-05-02T08:53:03;14.35;;;7.63;;
26375;SDS011;30544;42.196;24.336;2023-05-02T08:55:32;11.45;;;6.80;;
26375;SDS011;30544;42.196;24.336;2023-05-02T08:57:59;18.58;;;7.90;;
26375;SDS011;30544;42.196;24.336;2023-05-02T09:00:26;18.35;;;7.63;;
26375;SDS011;30544;42.196;24.336;2023-05-02T09:02:55;13.98;;;6.97;;
26375;SDS011;30544;42.196;24.336;2023-05-02T09:05:24;19.75;;;7.53;;
26375;SDS011;30544;42.196;24.336;2023-05-02T09:07:51;19.52;;;8.07;;
26375;SDS011;30544;42.196;24.336;2023-05-02T09:10:17;13.98;;;6.18;;
26375;SDS011;30544;42.196;24.336;2023-05-02T09:12:45;9.00;;;5.28;;
26375;SDS011;30544;42.196;24.336;2023-05-02T09:15:12;10.00;;;5.15;;
26375;SDS011;30544;42.196;24.336;2023-05-02T09:17:42;12.70;;;5.28;;
26375;SDS011;30544;42.196;24.336;2023-05-02T09:20:09;12.63;;;6.80;;
26375;SDS011;30544;42.196;24.336;2023-05-02T09:22:36;8.82;;;5.72;;
26375;SDS011;30544;42.196;24.336;2023-05-02T09:25:03;17.42;;;7.97;;
26375;SDS011;30544;42.196;24.336;2023-05-02T09:27:35;12.57;;;5.15;;
26375;SDS011;30544;42.196;24.336;2023-05-02T09:30:21;9.13;;;5.07;;
26375;SDS011;30544;42.196;24.336;2023-05-02T09:32:49;6.70;;;3.85;;
26375;SDS011;30544;42.196;24.336;2023-05-02T09:35:16;12.82;;;4.22;;
26375;SDS011;30544;42.196;24.336;2023-05-02T09:37:48;5.35;;;4.07;;
26375;SDS011;30544;42.196;24.336;2023-05-02T09:40:15;6.85;;;4.28;;
26375;SDS011;30544;42.196;24.336;2023-05-02T09:42:41;16.95;;;4.05;;
26375;SDS011;30544;42.196;24.336;2023-05-02T09:45:17;7.95;;;3.40;;
26375;SDS011;30544;42.196;24.336;2023-05-02T09:47:45;11.38;;;3.28;;
26375;SDS011;30544;42.196;24.336;2023-05-02T09:50:17;6.43;;;3.65;;
26375;SDS011;30544;42.196;24.336;2023-05-02T09:53:00;12.13;;;4.07;;
26375;SDS011;30544;42.196;24.336;2023-05-02T09:55:27;7.82;;;3.33;;
26375;SDS011;30544;42.196;24.336;2023-05-02T09:57:53;7.70;;;4.03;;
26375;SDS011;30544;42.196;24.336;2023-05-02T10:00:20;8.95;;;3.45;;
26375;SDS011;30544;42.196;24.336;2023-05-02T10:02:48;7.40;;;3.40;;
26375;SDS011;30544;42.196;24.336;2023-05-02T10:05:15;6.30;;;2.70;;
26375;SDS011;30544;42.196;24.336;2023-05-02T10:07:42;4.95;;;2.70;;
26375;SDS011;30544;42.196;24.336;2023-05-02T10:10:09;9.60;;;3.17;;
26375;SDS011;30544;42.196;24.336;2023-05-02T10:12:39;5.85;;;2.30;;
26375;SDS011;30544;42.196;24.336;2023-05-02T10:15:07;3.70;;;2.53;;
26375;SDS011;30544;42.196;24.336;2023-05-02T10:17:38;4.47;;;2.28;;
26375;SDS011;30544;42.196;24.336;2023-05-02T10:20:07;7.38;;;2.60;;
26375;SDS011;30544;42.196;24.336;2023-05-02T10:22:35;6.80;;;2.13;;
26375;SDS011;30544;42.196;24.336;2023-05-02T10:25:02;5.43;;;2.35;;
26375;SDS011;30544;42.196;24.336;2023-05-02T10:27:29;11.38;;;2.80;;
26375;SDS011;30544;42.196;24.336;2023-05-02T10:29:56;6.32;;;2.10;;
26375;SDS011;30544;42.196;24.336;2023-05-02T10:32:23;6.22;;;2.40;;
26375;SDS011;30544;42.196;24.336;2023-05-02T10:34:52;5.80;;;2.00;;
26375;SDS011;30544;42.196;24.336;2023-05-02T10:37:20;4.50;;;2.33;;
26375;SDS011;30544;42.196;24.336;2023-05-02T10:39:48;7.97;;;2.30;;
26375;SDS011;30544;42.196;24.336;2023-05-02T10:42:15;5.88;;;1.75;;
26375;SDS011;30544;42.196;24.336;2023-05-02T10:44:42;3.40;;;2.05;;
26375;SDS011;30544;42.196;24.336;2023-05-02T10:47:18;5.78;;;2.20;;
26375;SDS011;30544;42.196;24.336;2023-05-02T10:49:48;12.75;;;2.22;;
26375;SDS011;30544;42.196;24.336;2023-05-02T10:52:26;9.93;;;2.30;;
26375;SDS011;30544;42.196;24.336;2023-05-02T10:57:34;8.93;;;2.15;;
26375;SDS011;30544;42.196;24.336;2023-05-02T11:02:46;14.02;;;2.35;;
26375;SDS011;30544;42.196;24.336;2023-05-02T11:05:13;8.40;;;2.22;;
26375;SDS011;30544;42.196;24.336;2023-05-02T11:07:41;8.38;;;2.35;;
26375;SDS011;30544;42.196;24.336;2023-05-02T11:10:23;6.43;;;1.98;;
26375;SDS011;30544;42.196;24.336;2023-05-02T11:12:50;10.25;;;2.20;;
26375;SDS011;30544;42.196;24.336;2023-05-02T11:17:58;7.55;;;2.00;;
26375;SDS011;30544;42.196;24.336;2023-05-02T11:20:26;6.85;;;2.30;;
26375;SDS011;30544;42.196;24.336;2023-05-02T11:22:58;6.68;;;1.90;;
26375;SDS011;30544;42.196;24.336;2023-05-02T11:25:28;7.07;;;1.90;;
26375;SDS011;30544;42.196;24.336;2023-05-02T11:27:55;11.00;;;2.00;;
26375;SDS011;30544;42.196;24.336;2023-05-02T11:30:35;4.00;;;1.90;;
26375;SDS011;30544;42.196;24.336;2023-05-02T11:33:15;3.67;;;1.67;;
26375;SDS011;30544;42.196;24.336;2023-05-02T11:35:42;7.82;;;2.40;;
26375;SDS011;30544;42.196;24.336;2023-05-02T11:38:11;4.55;;;1.75;;
26375;SDS011;30544;42.196;24.336;2023-05-02T11:40:38;5.95;;;1.60;;
26375;SDS011;30544;42.196;24.336;2023-05-02T11:43:11;2.30;;;1.50;;
26375;SDS011;30544;42.196;24.336;2023-05-02T11:45:37;5.25;;;2.38;;
26375;SDS011;30544;42.196;24.336;2023-05-02T11:48:04;7.28;;;1.90;;
26375;SDS011;30544;42.196;24.336;2023-05-02T11:50:31;9.05;;;2.53;;
26375;SDS011;30544;42.196;24.336;2023-05-02T11:52:58;5.88;;;2.13;;
26375;SDS011;30544;42.196;24.336;2023-05-02T11:55:26;12.35;;;2.45;;
26375;SDS011;30544;42.196;24.336;2023-05-02T11:57:53;10.40;;;2.42;;
26375;SDS011;30544;42.196;24.336;2023-05-02T12:00:25;3.90;;;1.80;;
26375;SDS011;30544;42.196;24.336;2023-05-02T12:02:52;6.25;;;2.08;;
26375;SDS011;30544;42.196;24.336;2023-05-02T12:05:26;7.38;;;1.50;;
26375;SDS011;30544;42.196;24.336;2023-05-02T12:07:53;5.78;;;2.20;;
26375;SDS011;30544;42.196;24.336;2023-05-02T12:10:20;4.65;;;1.70;;
26375;SDS011;30544;42.196;24.336;2023-05-02T12:12:47;3.70;;;1.98;;
26375;SDS011;30544;42.196;24.336;2023-05-02T12:15:15;4.00;;;1.92;;
26375;SDS011;30544;42.196;24.336;2023-05-02T12:17:44;9.90;;;2.00;;
26375;SDS011;30544;42.196;24.336;2023-05-02T12:20:11;4.43;;;1.65;;
26375;SDS011;30544;42.196;24.336;2023-05-02T12:22:37;9.93;;;1.95;;
26375;SDS011;30544;42.196;24.336;2023-05-02T12:25:05;4.40;;;1.70;;
26375;SDS011;30544;42.196;24.336;2023-05-02T12:27:31;5.93;;;1.48;;
26375;SDS011;30544;42.196;24.336;2023-05-02T12:30:00;3.25;;;1.63;;
26375;SDS011;30544;42.196;24.336;2023-05-02T12:32:27;10.77;;;2.33;;
26375;SDS011;30544;42.196;24.336;2023-05-02T12:34:54;3.67;;;1.55;;
26375;SDS011;30544;42.196;24.336;2023-05-02T12:37:21;4.68;;;1.75;;
26375;SDS011;30544;42.196;24.336;2023-05-02T12:39:48;6.05;;;1.90;;
26375;SDS011;30544;42.196;24.336;2023-05-02T12:42:15;6.28;;;1.83;;
26375;SDS011;30544;42.196;24.336;2023-05-02T12:44:43;3.58;;;1.88;;
26375;SDS011;30544;42.196;24.336;2023-05-02T12:47:11;2.92;;;1.63;;
26375;SDS011;30544;42.196;24.336;2023-05-02T12:49:47;7.38;;;2.38;;
26375;SDS011;30544;42.196;24.336;2023-05-02T12:52:13;2.92;;;1.55;;
26375;SDS011;30544;42.196;24.336;2023-05-02T12:54:40;2.40;;;1.45;;
26375;SDS011;30544;42.196;24.336;2023-05-02T12:57:06;3.80;;;1.55;;
26375;SDS011;30544;42.196;24.336;2023-05-02T12:59:33;11.55;;;1.75;;
26375;SDS011;30544;42.196;24.336;2023-05-02T13:01:59;3.35;;;1.45;;
26375;SDS011;30544;42.196;24.336;2023-05-02T13:04:39;8.48;;;1.88;;
26375;SDS011;30544;42.196;24.336;2023-05-02T13:07:06;6.65;;;1.80;;
26375;SDS011;30544;42.196;24.336;2023-05-02T13:09:32;2.50;;;1.50;;
26375;SDS011;30544;42.196;24.336;2023-05-02T13:11:59;4.53;;;2.15;;
26375;SDS011;30544;42.196;24.336;2023-05-02T13:14:27;5.07;;;1.70;;
26375;SDS011;30544;42.196;24.336;2023-05-02T13:16:54;10.35;;;1.85;;
26375;SDS011;30544;42.196;24.336;2023-05-02T13:19:20;6.68;;;1.83;;
26375;SDS011;30544;42.196;24.336;2023-05-02T13:21:48;3.83;;;1.73;;
26375;SDS011;30544;42.196;24.336;2023-05-02T13:24:15;5.43;;;1.55;;
26375;SDS011;30544;42.196;24.336;2023-05-02T13:26:42;3.45;;;1.38;;
26375;SDS011;30544;42.196;24.336;2023-05-02T13:29:09;6.75;;;1.75;;
26375;SDS011;30544;42.196;24.336;2023-05-02T13:31:36;5.05;;;2.00;;
26375;SDS011;30544;42.196;24.336;2023-05-02T13:34:03;5.97;;;2.00;;
26375;SDS011;30544;42.196;24.336;2023-05-02T13:36:29;3.30;;;1.58;;
26375;SDS011;30544;42.196;24.336;2023-05-02T13:38:57;8.57;;;2.00;;
26375;SDS011;30544;42.196;24.336;2023-05-02T13:41:24;7.80;;;1.50;;
26375;SDS011;30544;42.196;24.336;2023-05-02T13:43:50;3.47;;;1.67;;
26375;SDS011;30544;42.196;24.336;2023-05-02T13:46:17;7.70;;;1.75;;
26375;SDS011;30544;42.196;24.336;2023-05-02T13:48:44;10.48;;;1.70;;
26375;SDS011;30544;42.196;24.336;2023-05-02T13:51:10;8.75;;;2.00;;
26375;SDS011;30544;42.196;24.336;2023-05-02T13:53:37;5.28;;;1.70;;
26375;SDS011;30544;42.196;24.336;2023-05-02T13:56:05;4.95;;;1.67;;
26375;SDS011;30544;42.196;24.336;2023-05-02T13:58:31;4.15;;;1.58;;
26375;SDS011;30544;42.196;24.336;2023-05-02T14:00:58;5.15;;;1.80;;
26375;SDS011;30544;42.196;24.336;2023-05-02T14:03:25;6.65;;;1.95;;
26375;SDS011;30544;42.196;24.336;2023-05-02T14:05:51;2.63;;;1.38;;
26375;SDS011;30544;42.196;24.336;2023-05-02T14:08:18;2.67;;;1.38;;
26375;SDS011;30544;42.196;24.336;2023-05-02T14:10:44;6.88;;;1.38;;
26375;SDS011;30544;42.196;24.336;2023-05-02T14:13:12;8.80;;;1.67;;
26375;SDS011;30544;42.196;24.336;2023-05-02T14:15:39;11.52;;;1.63;;
26375;SDS011;30544;42.196;24.336;2023-05-02T14:18:05;3.25;;;1.42;;
26375;SDS011;30544;42.196;24.336;2023-05-02T14:20:32;11.40;;;1.80;;
26375;SDS011;30544;42.196;24.336;2023-05-02T14:22:58;3.72;;;1.65;;
26375;SDS011;30544;42.196;24.336;2023-05-02T14:25:25;8.52;;;1.63;;
26375;SDS011;30544;42.196;24.336;2023-05-02T14:27:51;3.78;;;1.63;;
26375;SDS011;30544;42.196;24.336;2023-05-02T14:30:19;7.03;;;1.88;;